Deprecated: Methods with the same name as their class will not be constructors in a future version of PHP; flygplats has a deprecated constructor in D:\WebsitesNoSync\JulaAirPROD\vaderkarta\flygplats.class.php on line 3
Väderkarta

Håll muspekaren över respektive flygplats för att se aktuella METAR och TAF.
Informationen kommer från Aviation Weather Center och vi tar inget ansvar för ev fel.

whatever whatever

I=ILS ((min200ft)/550m), L=LOC(min250ft/800m), V=VOR(min300ft/800m), N=NDB(min300ft/800m), G=GPS, C=CIRC(min500ft/1600m),
Takeoff 500m, rwy lgt 250m, ctr lgt 200m, multi RVR 150m   RWY


SWEDEN

AirportMETARTAF
Arvidsjaur (I12/I30) ESNX 250050Z AUTO 30004KT 9999 FEW130/// SCT150/// 12/10 Q1014
Borlänge (I32/V14) ESSD 250020Z AUTO 25003KT 9999 NCD 13/11 Q1016
Bromma (I12/I30) ESSB 250020Z AUTO 00000KT 9999 NCD 14/12 Q1017 TAF ESSB 241130Z 2412/2416 29009KT CAVOK
Gällivare (I30/N12) ESNG 250020Z AUTO VRB02KT 9999 OVC098/// 10/07 Q1012
Halmstad (I19/N01) ESMT 250020Z AUTO 11004KT 9999 NCD 17/15 Q1015
Hemavan (I33/?15) B ESUT 250050Z AUTO 27003KT 9999 OVC009/// 11/11 Q1017
Jönköping (I19/V01) ESGJ 250020Z AUTO 16003KT 0900 R01/P1500N R19/P1500N FG NCD 13/13 Q1017
Kalmar (I16/V34) ESMQ 250020Z AUTO 31003KT 9999 NCD 09/09 Q1017
Karlsborg (VFR 06/24) ESIA 250020Z AUTO 24001KT 9999 NCD 16/15 Q1016
Karlstad (I03/I21) ESOK 250020Z AUTO 04003KT 9999 NCD 12/12 Q1016
Kiruna (I21/V03) ESNQ 250020Z AUTO 21003KT 9999 BKN074/// 08/07 Q1012
Kramfors (I35/L17) ESNK 250020Z AUTO 34004KT 9999 // NCD 14/12 Q1016
Kristianstad (I19/N01) ESMK 250020Z AUTO 10004KT 9999 // NCD 17/15 Q1015
Landvetter (I03/I21) ESGG 250020Z 14007KT CAVOK 18/13 Q1016 TAF ESGG 242330Z 2500/2524 12006KT CAVOK
Linköping-SAAB (I11/I29) ESSL 250020Z AUTO 12002KT 9999 NCD 13/11 Q1017
Ljungbyhed (I29/V11) ESTL 250020Z AUTO 14003KT 9999 NCD 15/15 Q1015
Luleå (I14/I32) ESPA 250020Z AUTO 00000KT 9999 NCD 13/10 Q1013 TAF ESPA 241130Z 2412/2415 18008KT CAVOK
Lycksele (I14/L32) ESNL 250050Z AUTO 00000KT 9999 NCD 10/09 Q1016
Norrköping (I09/I27) ESSP 250020Z AUTO 11001KT 9999 NCD 12/10 Q1017
Ronneby (I19/N01) ESDF 250020Z AUTO 05004KT 9999 NCD 12/12 Q1017 TAF ESDF 241130Z 2412/2414 13007KT 9999 SCT030 PROB40 2412/2414 SCT030TCU
Skavsta (I26/L08) ESKN 250020Z 09002KT CAVOK 14/11 Q1017 TAF ESKN 242330Z 2500/2524 16003KT CAVOK
Skelefteå (I28/V10) ESNS 250020Z AUTO 27007KT 9999 NCD 14/11 Q1014 TAF ESNS 241230Z 2413/2416 29007KT CAVOK
Skövde (N01/I19) ESGR 250020Z AUTO 20003KT 9999 FEW064/// 15/13 Q1016
Stockholm-Arlanda (I01LR/I19LR L08/I26) ESSA 250020Z 15002KT CAVOK 15/13 Q1016 NOSIG TAF ESSA 242330Z 2500/2524 15003KT CAVOK
Sturup (I17/I35) ESMS 250020Z 09011KT CAVOK 17/15 Q1014 TAF ESMS 242310Z 2500/2524 10010KT CAVOK TEMPO 2510/2516 09015G25KT
Sundsvall (I16/I34) ESNN 250020Z AUTO 31006KT 9999 NCD 15/12 Q1016
Sveg-ESND (L09)B ESND 250020Z AUTO 00000KT 9999 ///////// 12/// Q1017
Såtenäs (I19/N01) ESIB 250020Z AUTO 16005KT 9999 NCD 17/15 Q1015
Torsby (L16/L34) ESST 250020Z AUTO 00000KT 9999 NCD 12/11 Q1017
Trollhättan (I33/N15) ESGT 250020Z AUTO 18004KT 9999 NCD 17/13 Q1016
Umeå (I14/I32) ESNU 250020Z 29005KT CAVOK 14/12 Q1015 TAF ESNU 242330Z 2500/2509 30003KT CAVOK
Vilhelmina (I28/N10) B ESNV 250020Z AUTO 00000KT 9999 SCT098/// BKN230/// 09/07 Q1016
Visby (I21/V03) ESSV 250020Z AUTO 00000KT 9999 NCD 09/08 Q1018 TAF ESSV 241430Z 2415/2417 33010KT CAVOK BECMG 2416/2417 26009KT
Västerås (I19/V01) ESOW 250020Z AUTO 02002KT 9999 NCD 12/10 Q1017
Växjö (I19/L01) ESMX 250020Z AUTO 13003KT 9999 NCD 13/12 Q1017
Ängelholm (I14/N32) ESTA 250020Z AUTO 10010KT 9999 NCD 17/15 Q1015
Örebro (I01/I19) ESOE 250020Z AUTO 34002KT 9999 NCD 14/12 Q1016
Örnsköldsvik (I12/V30) ESNO 250020Z AUTO 31004KT 9999 NCD 14/13 Q1015
Östersund (I12/V30) ESNZ 250020Z AUTO 13003KT 9999 NCD 16/12 Q1017

NORDIC

AirportMETARTAF
Alta (I11) B ENAT 250020Z AUTO 35013KT 9999 FEW028/// SCT036/// OVC190/// 10/06 Q1011 RMK WIND 700FT 34009KT TAF ENAT 240800Z 2409/2413 32005KT 9999 FEW020 BKN030
Andoya (L14/V21/V32) ENAN 250050Z AUTO 26018G28KT 9999 OVC007/// 11/11 Q1012 TAF AMD ENAN 250051Z 2500/2524 25008KT 9999 FEW006 SCT010 BKN012 TEMPO 2500/2512 24015G25KT 2000 SHRA BR BKN004 TEMPO 2512/2524 FEW005 BKN018
Aro (I07/L25) B ENML 250020Z AUTO 02007KT 9999NDV OVC009/// 15/13 Q1016 TAF ENML 241100Z 2412/2417 25008KT CAVOK
Banak (I35/L17) ENNA 250020Z AUTO 05005KT 350V090 9999 FEW016/// OVC025/// 09/05 Q1010 RMK WIND 1800FT 31010KT TAF ENNA 2500/2524 36008KT 9999 FEW015 BKN020
Bardufors (I28/L10) B ENDU 250050Z AUTO 00000KT 6000 -RA ///021/// 11/11 Q1012 REDZ RMK WIND 1100FT 26005KT WIND 2200FT 28007KT TAF ENDU 2500/2524 26005KT 9999 -RADZ FEW005 BKN020 PROB40 TEMPO 2500/2506 4000 RADZ BKN009 TEMPO 2506/2515 BKN014
Bergen (I17/I35) ENBR 250050Z 03002KT 9999 FEW005 14/14 Q1015 RMK WIND 1200FT 10003KT TAF ENBR 2500/2524 36005KT CAVOK
Billund (I09/I27) EKBI 250020Z AUTO 07011KT 9999 FEW072/// 18/14 Q1012 TAF EKBI 242309Z 2500/2524 09010KT CAVOK TEMPO 2505/2524 SHRA SCT012 BKN030CB PROB40 TEMPO 2510/2518 4000 TSRA
Björneborg (I30/V12) EFPO 250020Z AUTO VRB02KT 9999 VCSH //////CB 12/11 Q1016
Bodö (I07/I25) ENBO 250050Z 11003KT 9999 FEW001 BKN020 12/12 Q1016 TAF COR ENBO 2500/2524 23012KT 9999 FEW006 BKN020 TEMPO 2500/2503 VRB05KT 4000 SHRA BKN008 BECMG 2505/2508 10008KT
Bornholm (I11/I29) EKRN 250020Z AUTO 09010KT 9999 FEW086/// 19/17 Q1014 TAF EKRN 241113Z 2412/2417 13010KT 9999 FEW035
Bronoysund (L04) ENBN 250020Z 25002KT CAVOK 12/11 Q1016 TAF ENBN 242300Z 2500/2509 35006KT 9999 FEW025
Enontekis (I21/V03) EFET 250020Z AUTO 28007KT CAVOK 11/08 Q1011
Esbjerg (I08/I26) EKEB 250020Z AUTO 08011KT 9999 NCD 18/14 Q1010 TAF EKEB 241113Z 2412/2417 10010KT 9999 SCT035
Faroar (L13/L31) B EKVG 250050Z AUTO 18007KT 1300 R12/P1500N R30/P1500N BR OVC001/// 10/10 Q1013 TAF EKVG 241422Z 2415/2421 16008KT 9999 BKN004 TEMPO 2415/2421 0400 FG VV002
Hammerfest (L05/L23) ENHF 250020Z AUTO 28007KT 240V310 9999 BKN014/// OVC017/// 07/05 Q1010 RMK WIND 1254FT 30022KT TAF AMD ENHF 241336Z 2413/2414 27018KT 9999 -DZ SCT009 BKN015 TEMPO 2413/2414 4000 -RADZ BKN006
Haugesund (I14/V32) ENHD 250050Z AUTO 05004KT 9999 NCD 15/14 Q1014
Helsinki (I04/I15/I22/V33) EFHK 250050Z 27004KT 240V300 CAVOK 13/09 Q1016 NOSIG TAF EFHK 242322Z 2500/2524 28006KT CAVOK BECMG 2510/2512 20010KT PROB30 TEMPO 2512/2518 FEW050CB BECMG 2519/2521 27006KT
Hoybuktmoen (I24/V06) ENKR 250020Z AUTO 31015KT 9999 OVC016/// 08/04 Q1008 RMK WIND 731FT 30023KT TAF ENKR 242300Z 2500/2509 31008KT 9999 FEW015 BKN025
Ivalo (I22/N22) EFIV 250050Z AUTO 24005KT CAVOK 06/05 Q1010
Jyvaskyla (I30/V12) EFJY 250020Z AUTO 30002KT CAVOK 12/10 Q1015 TAF EFJY 242322Z 2500/2524 28005KT CAVOK TEMPO 2509/2518 FEW050CB
Karup (I09/I27) EKKA 250050Z AUTO 07008KT 9999 NCD 16/15 Q1012 TAF EKKA 242303Z 2500/2524 09008KT 9999 FEW040 TEMPO 2508/2524 4000 SHRA BKN030CB PROB40 TEMPO 2510/2521 VRB10G22KT TSRA
Kastrup (I04/I12/I22/I30) EKCH 250020Z AUTO 09014KT 9999 NCD 19/16 Q1014 nosig TAF EKCH 242309Z 2500/2524 10015KT CAVOK
Kemi (I18/N36) EFKE 250020Z AUTO 32004KT 280V340 CAVOK 13/10 Q1012
Kittila (I34/L16) EFKT 250020Z AUTO 27003KT CAVOK 11/08 Q1011
Kristiansand (I04/I22) ENCN 250050Z AUTO 05005KT 9999 NCD 13/11 Q1015 TAF ENCN 241400Z 2415/2421 VRB05KT CAVOK
Kristiansund (I07/V25) ENKB 250020Z AUTO VRB03KT 0300 R07/P2000N R25/1200D FG VV000 13/12 Q1017 RMK WIND 745FT 31004KT TAF COR ENKB 241400Z 2415/2418 VRB05KT CAVOK TEMPO 2415/2418 25010KT
Kruunupyy (I19/N01) EFKK 250020Z AUTO 21004KT 9999 FEW042 13/11 Q1014
Kuopio (I33/V15) EFKU 250020Z AUTO 32004KT CAVOK 13/08 Q1014 TAF EFKU 242325Z 2500/2524 30007KT CAVOK TEMPO 2515/2518 SHRA SCT040CB
Mariehamn (I21/V03) EFMA 250050Z AUTO 33002KT CAVOK 10/10 Q1017 TAF EFMA 242322Z 2500/2509 27003KT CAVOK PROB30 TEMPO 2500/2506 0700 FG
Narvik (I17/V35) B ENEV 250020Z AUTO 23009G20KT 150V270 6000 BR OVC002/// 12/11 Q1014 RMK WIND 1400FT 24024KT TAF ENEV 241400Z 2415/2419 23008KT 9999 -RADZ SCT004 BKN015 TEMPO 2415/2419 3000 RADZ BR BKN002
Orland (I15/I33) ENOL 250020Z 23003KT 9999 2500N VCFG FEW100 SCT200 11/11 Q1016 TAF ENOL 2500/2524 VRB05KT CAVOK BECMG 2509/2512 34010KT BECMG 2518/2521 VRB05KT
Oslo (I01/I19) ENGM 250050Z 34005KT CAVOK 15/10 Q1016 TAF ENGM 2500/2524 01003KT CAVOK BECMG 2509/2511 17010KT BECMG 2519/2521 VRB03KT
Pammerfors (I24/V06) EFTP 250050Z AUTO 22002KT CAVOK 11/09 Q1016 TAF EFTP 242322Z 2500/2524 27005KT CAVOK PROB30 2509/2518 FEW050CB
Roskilde (I11/I21/03/29) EKRK 250020Z AUTO 10009KT 9999 NCD 18/16 Q1014 TAF EKRK 242310Z 2500/2509 10010KT CAVOK TEMPO 2505/2509 FEW050CB
Rovaniemi (I21/V03) EFRO 250050Z AUTO 33005KT CAVOK 13/08 Q1011 TAF EFRO 242325Z 2500/2524 30007KT CAVOK TEMPO 2518/2521 FEW050CB
Rygge (I30/N12) ENRY 250050Z AUTO 05003KT 9999NDV NCD 15/12 Q1016 TAF ENRY 2500/2524 07003KT CAVOK PROB40 2510/2517 27010KT
Sonderborg (I32/N14) EKSB 250020Z AUTO 09016KT 9999 FEW075/// 20/17 Q1009
Stavanger (I11/I18/I36/V29) ENZV 250050Z 00000KT CAVOK 15/14 Q1014 TAF ENZV 2500/2524 07005KT CAVOK BECMG 2509/2511 13012KT BECMG 2515/2517 VRB05KT PROB30 TEMPO 2517/2524 SHRA SCT035CB BKN070
Svalbard (I10/L28) C ENSB 250050Z 25011KT 9999 FEW008 SCT012 BKN025 06/03 Q1008 RMK WIND 1400FT 31004KT TAF ENSB 2500/2524 28009KT 9999 FEW010 SCT020 BKN040
Torp (I18/I36) ENTO 250050Z AUTO 34003KT 9999 NCD 17/10 Q1015 TAF ENTO 2500/2524 VRB03KT CAVOK PROB40 2510/2517 15010KT
Tromsö (I01/I19) B ENTC 250050Z 23002KT 4500 FEW002 BKN005 10/09 Q1012 RMK WIND 2600FT 25010KT TAF ENTC 2500/2524 28010KT 9999 -RA SCT008 BKN015 TEMPO 2500/2524 20008KT TEMPO 2500/2518 4000 RADZ VV005
Trondheim (I09/I27) B ENVA 250050Z 12007KT 9999 BKN100 13/12 Q1016 RMK WIND 670FT VRB01KT TAF ENVA 2500/2524 11005KT CAVOK BECMG 2508/2510 26010KT PROB30 TEMPO 2516/2520 VRB05KT 4000 TSRA BKN035CB BECMG 2520/2522 11005KT
Uleåborg (I12/V30) EFOU 250050Z AUTO 25006KT 230V290 CAVOK 14/13 Q1012 TAF EFOU 242325Z 2500/2524 28007KT CAVOK
Vamdrup (N01/N19) EKVD 250020Z AUTO 08010KT //// ///////// 18/14 Q1011 TAF EKVD 240854Z 2409/2415 11008KT 9999 FEW035
Vojens (I11/I29) EKSP 250050Z 07007KT CAVOK 18/14 Q1010 TAF EKSP 242303Z 2500/2524 09008KT 9999 SCT040 TEMPO 2506/2521 4000 SHRA BKN030CB PROB40 TEMPO 2509/2521 VRB10G22KT TSRA
Wasa (I16/V34) EFVA 250050Z AUTO 18002KT CAVOK 12/12 Q1015 TAF EFVA 242322Z 2500/2524 24006KT CAVOK PROB30 2500/2503 3000 BR BKN006 TEMPO 2505/2518 FEW040CB
Åbo (I26/V08) EFTU 250050Z AUTO VRB01KT CAVOK 10/09 Q1017 TAF EFTU 242322Z 2500/2524 26005KT CAVOK
Ålborg (I08/I26) EKYT 250020Z AUTO 08006KT 9999 NCD 17/15 Q1014 TAF EKYT 242302Z 2500/2524 10010KT 9999 FEW040 TEMPO 2523/2524 SHRA BKN030CB
Ålesund (I25/V07) B ENAL 250050Z AUTO 00000KT 9999 OVC003/// 14/13 Q1016 TAF ENAL 241700Z 2418/2421 30007KT 9999 SCT005 BKN008 TEMPO 2418/2421 4000 BR OVC004
Århus (I10/I28) EKAH 250020Z AUTO 10008KT 9999 NCD 19/16 Q1014 TAF EKAH 242309Z 2500/2524 10008KT CAVOK TEMPO 2508/2515 SHRA SCT012 BKN040CB

EUROPE

AirportMETARTAF
Augsburg-EDMA (I25/G07) B EDMA 250020Z AUTO 30003KT 9999 BKN110/// OVC130/// 15/14 Q1012 TAF EDMA 241700Z 2418/2503 VRB03KT 9999 SCT040 PROB30 TEMPO 2418/2424 24020G35KT 4000 TSRAGR SCT020 BKN040CB PROB30 TEMPO 2500/2503 BKN010
Birmingham-EGBB (I15/I33) EGBB 250020Z 05006KT 9999 BKN013 OVC018 15/12 Q1009 TAF EGBB 242253Z 2500/2524 04006KT 9999 SCT030 PROB40 TEMPO 2500/2509 BKN014
Dortmund (I06/I24) EDLW 250020Z AUTO 18007KT 9999 // FEW110/// 17/16 Q1008 TAF EDLW 241700Z 2418/2518 18005KT 9999 SCT030 PROB30 TEMPO 2418/2420 25010KT SHRA BKN020CB TEMPO 2500/2504 4000 BR BKN009 BECMG 2506/2508 22010KT PROB30 TEMPO 2513/2517 TSRA BKN035CB
Eindhoven-EHEH (I04/I22) EHEH 250042Z AUTO VRB01KT 5000 BR BKN091 BKN099 OVC130 17/16 Q1008 WHT TAF EHEH 242346Z 2500/2606 20004KT CAVOK BECMG 2501/2503 2500 BR MIFG PROB40 2502/2505 1200 BCFG BECMG 2505/2507 21007KT 6000 NSW SCT005 BECMG 2507/2509 9999 FEW020 SCT040 TEMPO 2511/2524 4000 SHRA FEW018 FEW035CB BKN060 PROB40 TEMPO 2512/2519 23018G30KT 2500 SHRA TSRAGR SCT012 SCT025CB BKN045 BECMG 2518/2521 15004KT FEW032 SCT050 BECMG 2521/2523 3000 BR MIFG PROB40 2523/2603 1200 BCFG BECMG 2603/2606 18006KT 6000 NSW SCT008
Krakow (I25) EPKK 250030Z 05002KT CAVOK 16/15 Q1014 TAF EPKK 242330Z 2500/2524 VRB02KT CAVOK PROB40 TEMPO 2513/2515 SCT050CB TEMPO 2515/2524 SHRA BKN040CB PROB40 TEMPO 2517/2524 VRB15G25KT 4000 TSRA
Kuressaare (V17/V35) EEKE 250020Z AUTO 00000KT 9999NDV NCD 10/09 Q1018 TAF EEKE 240600Z 2407/2413 36006KT 9999 SCT030 BECMG 2409/2411 18010KT
Köln (I14/I24/I32) EDDK 250020Z 13003KT 080V150 CAVOK 17/16 Q1009 NOSIG TAF EDDK 242300Z 2500/2606 VRB03KT CAVOK BECMG 2506/2509 16008KT PROB30 TEMPO 2512/2518 TSRA BKN030CB BECMG 2518/2521 VRB03KT
Le Bourget-LFPB (I07/I27/L25/ 03/21/09) LFPB 250030Z AUTO 18010KT 9999 BKN046/// BKN054/// OVC074/// ///TCU 20/15 Q1008 BECMG SCT045 BKN060 TAF LFPB 242300Z 2500/2524 15005KT 9999 SCT045 BKN060 BECMG 2503/2505 BKN012 PROB40 TEMPO 2505/2521 4000 -SHRA SCT012 BKN018TCU PROB40 TEMPO 2512/2518 22015G25KT 2500 TSRA BKN020CB BECMG 2520/2522 BKN020
Linz-LOWL (I09/I27) LOWL 250020Z AUTO VRB02KT 9999 NSC 17/16 Q1012 TAF LOWL 242315Z 2500/2524 VRB02KT 9999 SCT050 TX26/2513Z TN18/2524Z TEMPO 2500/2502 29015KT 7000 TSRA SCT040CB TEMPO 2510/2515 09010KT BECMG 2513/2515 26005KT FEW040CB TEMPO 2515/2522 28015G25KT 4000 TSRA
Pardubice-LKPD (I27) LKPD 250000Z 11004KT CAVOK 20/14 Q1011 TAF LKPD 242300Z 2500/2600 09006KT CAVOK TEMPO 2500/2518 7000 SHRA SCT030TCU BKN040 PROB40 TEMPO 2510/2518 21016G26KT 4000 TSRA BKN025CB TEMPO 2518/2600 27020G32KT 4000 TSRA BKN020CB
Prag-LKPR (I06/I13/I24/I31) LKPR 250030Z VRB02KT CAVOK 20/14 Q1010 NOSIG TAF LKPR 242300Z 2500/2606 09005KT CAVOK PROB40 TEMPO 2500/2506 7000 SHRA SCT040CB PROB30 TEMPO 2511/2517 SHRA SCT045CB BECMG 2515/2517 23007KT TEMPO 2517/2602 25015G25KT 4000 TSRA BKN030CB PROB30 TEMPO 2517/2520 30020G36KT 1700 +TSRAGR BKN013CB
Reykjavik-BIRK (I19/L13/ 01/06/24/31) BIRK 250000Z 15005KT 9999 SCT014 BKN030 BKN037 10/08 Q1003 TAF BIRK 242259Z 2500/2600 18012KT 9999 SCT015 BKN022 TX12/2514Z TN08/2506Z TEMPO 2500/2509 7000 -RADZ BKN012 BECMG 2509/2511 15020G33KT -RA TEMPO 2511/2515 5000 RADZ SCT010 BKN015 TEMPO 2515/2600 6000 SHRA SCT010CB BKN014 BECMG 2520/2522 17018KT
Salzburg-LOWS (I16) LOWS 250020Z AUTO 15007KT 110V230 9999 FEW048 BKN100 17/14 Q1013 TAF LOWS 242315Z 2500/2524 15005KT 9999 FEW040 SCT060 TX24/2512Z TN17/2524Z TEMPO 2500/2502 VRB15G25KT SHRA SCT040 FEW040CB BKN060 BECMG 2506/2508 35007KT TEMPO 2512/2523 SHRA SCT050 FEW050CB BKN090 TEMPO 2513/2521 30020G40KT 2500 +TSRA FEW030 SCT030CB BKN040 BECMG 2518/2520 16006KT
St Petersburg (I10/I28) B ULLI 250030Z VRB01MPS CAVOK 11/07 Q1017 R28L/090060 NOSIG TAF ULLI 242255Z 2500/2524 24003MPS 9999 SCT040 TEMPO 2500/2504 3000 BR BECMG 2506/2508 28005MPS TEMPO 2508/2515 29005G10MPS BKN040
Tallin (I08/I26) EETN 250050Z 20003KT CAVOK 12/09 Q1017 TAF EETN 242315Z 2500/2524 VRB02KT CAVOK BECMG 2508/2510 33010KT
Ulenurme (N26/C08) B EETU 250020Z AUTO 00000KT 9999 NCD 11/09 Q1017
Vilnius EYVI 250050Z 00000KT CAVOK 13/11 Q1017 NOSIG TAF EYVI 242300Z 2500/2524 VRB04KT 6000 NSC PROB40 TEMPO 2500/2504 1500 MIFG BR TEMPO 2509/2516 SCT040
Warszawa (I11/I33/V15/V29) EPWA 250030Z 09006KT CAVOK 21/13 Q1014 NOSIG TAF EPWA 242330Z 2500/2524 07008KT CAVOK BECMG 2509/2512 15010KT TEMPO 2512/2524 -SHRA SCT040CB PROB30 TEMPO 2515/2520 TSRA SCT012 BKN025CB
Wroclaw (I29) EPWR 250030Z 12003KT CAVOK 18/14 Q1012 TAF EPWR 242330Z 2500/2524 11008KT CAVOK TEMPO 2509/2518 SHRA BKN040CB PROB30 TEMPO 2510/2518 VRB15G28KT 4000 TSRA

OTHER

AirportMETARTAF